Time;durP1;ratioP1;P1;durP2;ratioP2;P2;SDS_P1;SDS_P2;PMS_P1;PMS_P2;Temp;Humidity;BMP_temperature;BMP_pressure;BME280_temperature;BME280_humidity;BME280_pressure;Samples;Min_cycle;Max_cycle;Signal;HPM_P1;HPM_P2
2021/11/29 00:00:41;;;;;;;;;;;11.40;74.00;;;;;;5023553;28;83105;-59
2021/11/29 00:03:08;;;;;;;;;;;11.40;74.20;;;;;;5023899;28;82444;-59
2021/11/29 00:05:34;;;;;;;;;;;11.40;74.20;;;;;;5022135;28;82326;-59
2021/11/29 00:08:01;;;;;;;;;;;11.40;74.40;;;;;;5021595;28;83215;-59
2021/11/29 00:10:28;;;;;;;;;;;11.40;74.50;;;;;;5023010;28;84450;-59
2021/11/29 00:12:53;;;;;;;;;;;11.40;74.40;;;;;;5023375;28;83628;-59
2021/11/29 00:15:19;;;;;;;;;;;11.40;74.30;;;;;;5025019;28;84264;-59
2021/11/29 00:17:45;;;;;;;;;;;11.40;74.40;;;;;;5021673;28;83039;-58
2021/11/29 00:20:11;;;;;;;;;;;11.40;74.50;;;;;;5020110;28;83102;-59
2021/11/29 00:22:37;;;;;;;;;;;11.40;74.70;;;;;;5022647;28;82808;-59
2021/11/29 00:25:03;;;;;;;;;;;11.40;74.70;;;;;;5024415;28;82367;-59
2021/11/29 00:27:29;;;;;;;;;;;11.50;74.50;;;;;;5022374;28;84402;-59
2021/11/29 00:29:55;;;;;;;;;;;11.50;74.50;;;;;;5021814;28;82068;-59
2021/11/29 00:32:20;;;;;;;;;;;11.40;74.50;;;;;;5022165;28;83014;-59
2021/11/29 00:34:46;;;;;;;;;;;11.40;74.50;;;;;;5020334;28;85499;-59
2021/11/29 00:37:11;;;;;;;;;;;11.40;74.60;;;;;;5024617;28;82148;-58
2021/11/29 00:39:37;;;;;;;;;;;11.40;74.50;;;;;;5020976;28;82683;-59
2021/11/29 00:42:02;;;;;;;;;;;11.40;74.50;;;;;;5021046;28;82131;-58
2021/11/29 00:44:28;;;;;;;;;;;11.40;74.50;;;;;;5021048;28;84110;-59
2021/11/29 00:46:54;;;;;;;;;;;11.40;74.60;;;;;;5021119;28;83070;-58
2021/11/29 00:49:19;;;;;;;;;;;11.40;74.50;;;;;;5020039;28;82199;-58
2021/11/29 00:51:45;;;;;;;;;;;11.40;74.50;;;;;;5019709;28;83671;-59
2021/11/29 00:54:11;;;;;;;;;;;11.40;74.50;;;;;;5021225;28;83287;-59
2021/11/29 00:56:36;;;;;;;;;;;11.40;74.90;;;;;;5021715;28;82098;-59
2021/11/29 00:59:03;;;;;;;;;;;11.40;74.60;;;;;;5025664;28;83061;-59
2021/11/29 01:01:29;;;;;;;;;;;11.40;74.70;;;;;;5023707;28;82111;-59
2021/11/29 01:03:54;;;;;;;;;;;11.40;74.70;;;;;;5022743;28;82540;-59
2021/11/29 01:06:20;;;;;;;;;;;11.30;75.20;;;;;;5021602;28;83431;-59
2021/11/29 01:08:45;;;;;;;;;;;11.40;75.60;;;;;;5021028;28;82203;-60
2021/11/29 01:11:11;;;;;;;;;;;11.40;75.30;;;;;;5020393;28;83304;-59
2021/11/29 01:13:37;;;;;;;;;;;11.30;75.30;;;;;;5019290;28;84643;-59
2021/11/29 01:16:03;;;;;;;;;;;11.40;75.30;;;;;;5020399;28;81367;-59
2021/11/29 01:18:29;;;;;;;;;;;11.40;75.40;;;;;;5022725;28;83044;-59
2021/11/29 01:20:54;;;;;;;;;;;11.40;75.20;;;;;;5025042;28;82975;-59
2021/11/29 01:23:20;;;;;;;;;;;11.40;75.40;;;;;;5025637;28;83570;-60
2021/11/29 01:25:46;;;;;;;;;;;11.40;75.20;;;;;;5026624;28;84658;-59
2021/11/29 01:28:12;;;;;;;;;;;11.40;75.20;;;;;;5025394;28;82144;-59
2021/11/29 01:30:38;;;;;;;;;;;11.40;75.10;;;;;;5025975;28;83908;-59
2021/11/29 01:33:03;;;;;;;;;;;11.40;75.10;;;;;;5027105;28;82704;-60
2021/11/29 01:35:29;;;;;;;;;;;11.40;75.10;;;;;;5024235;28;83085;-59
2021/11/29 01:37:55;;;;;;;;;;;11.40;75.10;;;;;;5022285;28;83597;-59
2021/11/29 01:40:21;;;;;;;;;;;11.40;75.20;;;;;;5026089;28;82523;-59
2021/11/29 01:42:54;;;;;;;;;;;11.40;75.10;;;;;;5023502;28;82161;-59
2021/11/29 01:45:20;;;;;;;;;;;11.40;75.10;;;;;;5024096;28;83459;-59
2021/11/29 01:47:45;;;;;;;;;;;11.40;75.20;;;;;;5021810;28;83105;-59
2021/11/29 01:50:11;;;;;;;;;;;11.40;75.10;;;;;;5023602;28;83123;-59
2021/11/29 01:52:37;;;;;;;;;;;11.40;75.10;;;;;;5024598;28;83331;-59
2021/11/29 01:55:02;;;;;;;;;;;11.40;75.20;;;;;;5025893;28;82118;-59
2021/11/29 01:57:28;;;;;;;;;;;11.40;75.10;;;;;;5026354;28;83128;-60
2021/11/29 01:59:54;;;;;;;;;;;11.40;75.00;;;;;;5023966;28;84060;-59
2021/11/29 02:02:20;;;;;;;;;;;11.40;75.10;;;;;;5024858;28;82127;-59
2021/11/29 02:04:45;;;;;;;;;;;11.40;75.20;;;;;;5022717;28;83296;-59
2021/11/29 02:07:11;;;;;;;;;;;11.40;75.10;;;;;;5023359;28;82121;-59
2021/11/29 02:09:37;;;;;;;;;;;11.40;75.10;;;;;;5024592;28;82338;-59
2021/11/29 02:12:02;;;;;;;;;;;11.30;75.10;;;;;;5023446;28;84516;-60
2021/11/29 02:14:28;;;;;;;;;;;11.40;75.10;;;;;;5025393;28;82047;-59
2021/11/29 02:16:54;;;;;;;;;;;11.40;75.10;;;;;;5026545;28;82548;-59
2021/11/29 02:19:20;;;;;;;;;;;11.40;74.90;;;;;;5023616;28;82985;-59
2021/11/29 02:21:45;;;;;;;;;;;11.40;74.90;;;;;;5022456;28;82245;-59
2021/11/29 02:24:11;;;;;;;;;;;11.30;74.90;;;;;;5024753;28;82107;-59
2021/11/29 02:26:38;;;;;;;;;;;11.40;75.00;;;;;;5023338;28;82179;-59
2021/11/29 02:29:09;;;;;;;;;;;11.40;75.10;;;;;;5022596;28;83617;-59
2021/11/29 02:31:36;;;;;;;;;;;11.40;74.90;;;;;;5022100;28;83175;-60
2021/11/29 02:34:10;;;;;;;;;;;11.30;74.90;;;;;;5022861;28;83132;-59
2021/11/29 02:36:35;;;;;;;;;;;11.30;74.80;;;;;;5023765;28;83755;-59
2021/11/29 02:39:03;;;;;;;;;;;11.30;74.80;;;;;;5025518;28;82545;-59
2021/11/29 02:41:28;;;;;;;;;;;11.40;74.80;;;;;;5024371;28;82176;-59
2021/11/29 02:43:54;;;;;;;;;;;11.30;74.80;;;;;;5025718;28;82176;-59
2021/11/29 02:46:19;;;;;;;;;;;11.30;74.70;;;;;;5026252;28;83497;-59
2021/11/29 02:48:46;;;;;;;;;;;11.30;74.60;;;;;;5023159;28;83260;-59
2021/11/29 02:51:22;;;;;;;;;;;11.30;74.60;;;;;;5025408;28;82262;-59
2021/11/29 02:53:48;;;;;;;;;;;11.30;74.60;;;;;;5026506;28;81538;-59
2021/11/29 02:56:15;;;;;;;;;;;11.40;74.60;;;;;;5025701;28;82105;-59
2021/11/29 02:58:41;;;;;;;;;;;11.30;74.60;;;;;;5025502;28;82933;-58
2021/11/29 03:01:06;;;;;;;;;;;11.30;75.20;;;;;;5023381;28;84748;-55
2021/11/29 03:03:32;;;;;;;;;;;11.30;75.40;;;;;;5020991;28;84424;-57
2021/11/29 03:05:57;;;;;;;;;;;11.30;75.20;;;;;;5021660;28;83143;-57
2021/11/29 03:08:23;;;;;;;;;;;11.30;74.90;;;;;;5025766;28;82120;-57
2021/11/29 03:10:48;;;;;;;;;;;11.30;74.80;;;;;;5024229;28;83285;-57
2021/11/29 03:13:14;;;;;;;;;;;11.30;74.80;;;;;;5025689;28;82140;-55
2021/11/29 03:15:40;;;;;;;;;;;11.30;75.00;;;;;;5025333;28;83019;-58
2021/11/29 03:18:05;;;;;;;;;;;11.30;75.00;;;;;;5023017;28;83746;-57
2021/11/29 03:20:31;;;;;;;;;;;11.30;74.90;;;;;;5020860;28;82106;-58
2021/11/29 03:22:56;;;;;;;;;;;11.30;75.00;;;;;;5022230;28;82099;-58
2021/11/29 03:25:23;;;;;;;;;;;11.30;75.00;;;;;;5022322;28;84046;-58
2021/11/29 03:27:48;;;;;;;;;;;11.30;75.10;;;;;;5023359;28;82096;-58
2021/11/29 03:30:14;;;;;;;;;;;11.30;74.80;;;;;;5027044;28;82997;-59
2021/11/29 03:32:39;;;;;;;;;;;11.30;74.90;;;;;;5024489;28;83205;-58
2021/11/29 03:35:07;;;;;;;;;;;11.30;74.70;;;;;;5021910;28;82990;-58
2021/11/29 03:37:33;;;;;;;;;;;11.30;75.00;;;;;;5024722;28;84792;-59
2021/11/29 03:39:58;;;;;;;;;;;11.30;74.80;;;;;;5021973;28;82649;-58
2021/11/29 03:42:24;;;;;;;;;;;11.30;74.90;;;;;;5020752;28;84040;-58
2021/11/29 03:44:49;;;;;;;;;;;11.30;74.80;;;;;;5020031;28;83943;-58
2021/11/29 03:47:15;;;;;;;;;;;11.30;75.20;;;;;;5020283;28;82102;-58
2021/11/29 03:49:41;;;;;;;;;;;11.30;75.10;;;;;;5023151;28;83142;-59
2021/11/29 03:52:06;;;;;;;;;;;11.30;74.90;;;;;;5021966;28;82177;-58
2021/11/29 03:54:32;;;;;;;;;;;11.30;75.10;;;;;;5022528;28;84195;-57
2021/11/29 03:56:59;;;;;;;;;;;11.30;75.70;;;;;;5022344;28;82789;-58
2021/11/29 03:59:25;;;;;;;;;;;11.30;75.30;;;;;;5021526;28;82158;-58
2021/11/29 04:01:50;;;;;;;;;;;11.30;75.30;;;;;;5022173;28;82232;-58
2021/11/29 04:04:16;;;;;;;;;;;11.30;75.30;;;;;;5022291;28;84957;-58
2021/11/29 04:06:42;;;;;;;;;;;11.30;75.10;;;;;;5023386;28;81370;-58
2021/11/29 04:09:07;;;;;;;;;;;11.30;75.10;;;;;;5023337;28;82902;-58
2021/11/29 04:11:33;;;;;;;;;;;11.30;75.00;;;;;;5027063;28;83141;-57
2021/11/29 04:13:59;;;;;;;;;;;11.30;74.90;;;;;;5021556;28;84263;-57
2021/11/29 04:16:24;;;;;;;;;;;11.30;75.00;;;;;;5019555;28;83205;-56
2021/11/29 04:18:50;;;;;;;;;;;11.30;75.00;;;;;;5020829;28;82131;-57
2021/11/29 04:21:16;;;;;;;;;;;11.30;75.00;;;;;;5021909;28;83801;-58
2021/11/29 04:23:46;;;;;;;;;;;11.30;74.90;;;;;;5022045;28;82132;-56
2021/11/29 04:26:15;;;;;;;;;;;11.30;74.90;;;;;;5022360;28;82113;-58
2021/11/29 04:28:40;;;;;;;;;;;11.30;74.80;;;;;;5019422;28;83879;-58
2021/11/29 04:31:06;;;;;;;;;;;11.30;74.80;;;;;;5021323;28;81958;-58
2021/11/29 04:33:32;;;;;;;;;;;11.30;74.80;;;;;;5022673;28;83200;-57
2021/11/29 04:35:57;;;;;;;;;;;11.30;74.70;;;;;;5019713;27;82664;-58
2021/11/29 04:38:23;;;;;;;;;;;11.30;74.70;;;;;;5020280;28;83029;-57
2021/11/29 04:40:49;;;;;;;;;;;11.30;74.70;;;;;;5021171;28;84393;-58
2021/11/29 04:43:14;;;;;;;;;;;11.30;74.70;;;;;;5020470;28;83331;-59
2021/11/29 04:45:40;;;;;;;;;;;11.20;74.60;;;;;;5021421;28;82120;-58
2021/11/29 04:48:06;;;;;;;;;;;11.30;74.70;;;;;;5022733;28;82202;-57
2021/11/29 04:50:32;;;;;;;;;;;11.30;74.60;;;;;;5022139;28;83233;-58
2021/11/29 04:52:58;;;;;;;;;;;11.30;74.60;;;;;;5022457;28;82090;-58
2021/11/29 04:55:23;;;;;;;;;;;11.30;74.50;;;;;;5026482;28;82596;-58
2021/11/29 04:57:49;;;;;;;;;;;11.20;74.40;;;;;;5022339;28;82741;-58
2021/11/29 05:00:18;;;;;;;;;;;11.30;74.50;;;;;;5019184;28;84002;-58
2021/11/29 05:02:44;;;;;;;;;;;11.20;74.40;;;;;;5020834;28;83948;-58
2021/11/29 05:05:10;;;;;;;;;;;11.20;74.40;;;;;;5020742;28;82181;-58
2021/11/29 05:07:35;;;;;;;;;;;11.20;74.50;;;;;;5022386;28;82122;-59
2021/11/29 05:10:01;;;;;;;;;;;11.20;74.40;;;;;;5023083;28;83494;-58
2021/11/29 05:12:27;;;;;;;;;;;11.20;74.40;;;;;;5023324;28;82128;-58
2021/11/29 05:14:52;;;;;;;;;;;11.20;74.40;;;;;;5022934;28;83992;-59
2021/11/29 05:17:18;;;;;;;;;;;11.20;74.30;;;;;;5023300;28;83753;-59
2021/11/29 05:19:44;;;;;;;;;;;11.20;74.30;;;;;;5019628;28;82311;-58
2021/11/29 05:22:09;;;;;;;;;;;11.20;74.30;;;;;;5019740;28;84243;-58
2021/11/29 05:24:35;;;;;;;;;;;11.20;74.30;;;;;;5022999;28;83314;-58
2021/11/29 05:27:01;;;;;;;;;;;11.20;74.30;;;;;;5022130;28;83053;-58
2021/11/29 05:29:27;;;;;;;;;;;11.10;74.30;;;;;;5022323;28;84455;-58
2021/11/29 05:31:53;;;;;;;;;;;11.20;74.40;;;;;;5022529;28;82111;-58
2021/11/29 05:34:18;;;;;;;;;;;11.20;74.40;;;;;;5023156;28;82915;-59
2021/11/29 05:36:44;;;;;;;;;;;11.20;74.30;;;;;;5021787;28;84799;-59
2021/11/29 05:39:10;;;;;;;;;;;11.10;74.20;;;;;;5025868;28;82853;-59
2021/11/29 05:41:35;;;;;;;;;;;11.10;74.20;;;;;;5019756;28;82942;-58
2021/11/29 05:44:01;;;;;;;;;;;11.20;74.30;;;;;;5019856;28;81409;-59
2021/11/29 05:46:26;;;;;;;;;;;11.10;74.10;;;;;;5019463;28;83263;-58
2021/11/29 05:48:52;;;;;;;;;;;11.10;74.10;;;;;;5019999;28;84256;-58
2021/11/29 05:51:18;;;;;;;;;;;11.10;74.20;;;;;;5020641;28;83043;-58
2021/11/29 05:53:44;;;;;;;;;;;11.10;74.10;;;;;;5021669;28;84015;-58
2021/11/29 05:56:10;;;;;;;;;;;11.10;74.20;;;;;;5021847;28;84520;-58
2021/11/29 05:58:36;;;;;;;;;;;11.10;74.10;;;;;;5025946;28;82130;-58
2021/11/29 06:01:02;;;;;;;;;;;11.10;74.10;;;;;;5021442;28;83336;-58
2021/11/29 06:03:27;;;;;;;;;;;11.10;74.00;;;;;;5021891;28;82144;-58
2021/11/29 06:05:53;;;;;;;;;;;11.10;74.10;;;;;;5022043;28;82635;-59
2021/11/29 06:08:18;;;;;;;;;;;11.10;74.10;;;;;;5022970;28;82288;-59
2021/11/29 06:10:44;;;;;;;;;;;11.10;74.00;;;;;;5023355;28;82345;-59
2021/11/29 06:13:10;;;;;;;;;;;11.10;74.10;;;;;;5024615;28;82206;-59
2021/11/29 06:15:35;;;;;;;;;;;11.10;74.60;;;;;;5024729;28;83054;-59
2021/11/29 06:18:01;;;;;;;;;;;11.10;74.00;;;;;;5026128;28;82126;-59
2021/11/29 06:20:26;;;;;;;;;;;11.10;74.00;;;;;;5029043;28;82992;-59
2021/11/29 06:22:53;;;;;;;;;;;11.10;74.10;;;;;;5026187;28;82073;-58
2021/11/29 06:25:20;;;;;;;;;;;11.10;74.00;;;;;;5025486;28;82908;-58
2021/11/29 06:27:45;;;;;;;;;;;11.10;74.00;;;;;;5025627;28;83126;-58
2021/11/29 06:30:12;;;;;;;;;;;11.10;74.00;;;;;;5024732;28;83209;-58
2021/11/29 06:32:37;;;;;;;;;;;11.00;73.90;;;;;;5025754;28;82553;-57
2021/11/29 06:35:04;;;;;;;;;;;11.10;74.00;;;;;;5022102;28;83123;-58
2021/11/29 06:37:30;;;;;;;;;;;11.10;73.90;;;;;;5025535;28;82237;-58
2021/11/29 06:39:59;;;;;;;;;;;11.10;74.00;;;;;;5024862;28;83169;-59
2021/11/29 06:42:25;;;;;;;;;;;11.00;73.90;;;;;;5024332;28;84303;-58
2021/11/29 06:44:50;;;;;;;;;;;11.10;73.90;;;;;;5022932;28;82529;-59
2021/11/29 06:47:16;;;;;;;;;;;11.10;73.80;;;;;;5023564;28;82182;-58
2021/11/29 06:49:42;;;;;;;;;;;11.10;73.80;;;;;;5024337;28;82173;-59
2021/11/29 06:52:07;;;;;;;;;;;11.10;73.90;;;;;;5024825;28;82110;-58
2021/11/29 06:54:36;;;;;;;;;;;11.00;73.80;;;;;;5025654;28;84430;-58
2021/11/29 06:57:01;;;;;;;;;;;11.10;73.80;;;;;;5022448;28;81463;-58
2021/11/29 06:59:28;;;;;;;;;;;11.10;73.80;;;;;;5022619;28;82141;-58
2021/11/29 07:01:54;;;;;;;;;;;11.00;73.80;;;;;;5022070;28;84237;-58
2021/11/29 07:04:20;;;;;;;;;;;11.00;73.80;;;;;;5025455;28;83125;-58
2021/11/29 07:06:46;;;;;;;;;;;11.10;73.80;;;;;;5023505;28;83372;-59
2021/11/29 07:09:12;;;;;;;;;;;11.00;73.80;;;;;;5024273;28;82181;-59
2021/11/29 07:11:37;;;;;;;;;;;11.00;73.80;;;;;;5024907;28;82114;-58
2021/11/29 07:14:04;;;;;;;;;;;11.00;73.80;;;;;;5024412;28;83473;-58
2021/11/29 07:16:29;;;;;;;;;;;11.00;73.80;;;;;;5023994;28;83778;-58
2021/11/29 07:18:55;;;;;;;;;;;11.00;73.80;;;;;;5021091;28;83717;-59
2021/11/29 07:21:20;;;;;;;;;;;11.00;73.80;;;;;;5021864;28;81833;-58
2021/11/29 07:23:46;;;;;;;;;;;11.00;73.90;;;;;;5022742;28;82075;-59
2021/11/29 07:26:12;;;;;;;;;;;11.00;73.80;;;;;;5026425;28;82935;-59
2021/11/29 07:28:37;;;;;;;;;;;11.00;73.80;;;;;;5024362;28;83128;-58
2021/11/29 07:31:03;;;;;;;;;;;11.00;73.90;;;;;;5023495;28;83921;-58
2021/11/29 07:33:28;;;;;;;;;;;11.00;73.90;;;;;;5020363;28;82532;-58
2021/11/29 07:35:54;;;;;;;;;;;11.00;74.00;;;;;;5021542;28;82097;-58
2021/11/29 07:38:20;;;;;;;;;;;11.00;73.90;;;;;;5022436;28;83621;-58
2021/11/29 07:40:45;;;;;;;;;;;11.00;74.00;;;;;;5023466;28;83144;-58
2021/11/29 07:43:11;;;;;;;;;;;11.00;73.90;;;;;;5023089;28;82126;-58
2021/11/29 07:45:38;;;;;;;;;;;11.00;73.90;;;;;;5027163;28;82767;-59
2021/11/29 07:48:04;;;;;;;;;;;11.00;73.80;;;;;;5024185;28;82145;-58
2021/11/29 07:50:30;;;;;;;;;;;11.00;73.80;;;;;;5024188;28;83325;-59
2021/11/29 07:52:55;;;;;;;;;;;11.00;73.80;;;;;;5023712;28;83954;-58
2021/11/29 07:55:24;;;;;;;;;;;11.00;73.90;;;;;;5021889;28;83625;-58
2021/11/29 07:57:50;;;;;;;;;;;11.00;74.00;;;;;;5022754;28;83730;-59
2021/11/29 08:00:18;;;;;;;;;;;11.00;73.90;;;;;;5023135;28;83126;-59
2021/11/29 08:02:47;;;;;;;;;;;10.90;73.90;;;;;;5021446;28;82047;-59
2021/11/29 08:05:13;;;;;;;;;;;11.00;73.90;;;;;;5024002;28;84316;-58
2021/11/29 08:07:39;;;;;;;;;;;10.90;73.90;;;;;;5026675;28;82508;-58
2021/11/29 08:10:05;;;;;;;;;;;10.90;73.90;;;;;;5025375;28;82501;-58
2021/11/29 08:12:31;;;;;;;;;;;10.90;74.00;;;;;;5022492;28;84579;-58
2021/11/29 08:14:56;;;;;;;;;;;10.90;74.00;;;;;;5019822;28;82085;-58
2021/11/29 08:17:22;;;;;;;;;;;10.90;74.00;;;;;;5020119;28;83006;-58
2021/11/29 08:19:48;;;;;;;;;;;10.90;74.00;;;;;;5021638;28;83715;-58
2021/11/29 08:22:14;;;;;;;;;;;10.90;74.20;;;;;;5022627;28;82057;-56
2021/11/29 08:24:40;;;;;;;;;;;10.90;74.40;;;;;;5022961;28;83518;-52
2021/11/29 08:27:05;;;;;;;;;;;10.90;74.50;;;;;;5022490;28;82161;-55
2021/11/29 08:29:31;;;;;;;;;;;10.80;74.50;;;;;;5025873;28;82105;-53
2021/11/29 08:31:57;;;;;;;;;;;10.80;74.40;;;;;;5024076;28;83137;-53
2021/11/29 08:34:22;;;;;;;;;;;10.80;74.50;;;;;;5022663;28;82573;-54
2021/11/29 08:36:48;;;;;;;;;;;10.80;74.50;;;;;;5019499;28;82102;-55
2021/11/29 08:39:14;;;;;;;;;;;10.80;74.40;;;;;;5020617;28;83036;-55
2021/11/29 08:41:39;;;;;;;;;;;10.80;74.40;;;;;;5021221;28;83017;-52
2021/11/29 08:44:05;;;;;;;;;;;10.80;74.30;;;;;;5022736;28;84458;-51
2021/11/29 08:46:31;;;;;;;;;;;10.80;74.40;;;;;;5023767;28;83359;-51
2021/11/29 08:48:57;;;;;;;;;;;10.80;74.40;;;;;;5023537;28;82673;-53
2021/11/29 08:51:22;;;;;;;;;;;10.80;74.40;;;;;;5023554;28;82542;-53
2021/11/29 08:53:48;;;;;;;;;;;10.80;74.40;;;;;;5019710;28;82207;-55
2021/11/29 08:56:14;;;;;;;;;;;10.80;74.50;;;;;;5020036;28;82382;-53
2021/11/29 08:58:39;;;;;;;;;;;10.80;74.40;;;;;;5020748;28;81795;-54
2021/11/29 09:01:05;;;;;;;;;;;10.80;74.30;;;;;;5021380;28;82094;-52
2021/11/29 09:03:31;;;;;;;;;;;10.70;74.30;;;;;;5021711;28;82594;-54
2021/11/29 09:05:57;;;;;;;;;;;10.80;74.30;;;;;;5020692;28;83034;-55
2021/11/29 09:08:23;;;;;;;;;;;10.80;74.30;;;;;;5022189;28;82234;-53
2021/11/29 09:10:49;;;;;;;;;;;10.80;74.40;;;;;;5022934;28;82183;-54
2021/11/29 09:13:15;;;;;;;;;;;10.80;74.30;;;;;;5026183;28;84271;-56
2021/11/29 09:15:42;;;;;;;;;;;10.70;74.20;;;;;;5022385;28;84137;-55
2021/11/29 09:18:08;;;;;;;;;;;10.70;74.50;;;;;;5023028;28;84151;-54
2021/11/29 09:20:33;;;;;;;;;;;10.70;74.30;;;;;;5023547;28;82110;-56
2021/11/29 09:23:01;;;;;;;;;;;10.70;74.20;;;;;;5023917;28;83848;-57
2021/11/29 09:25:27;;;;;;;;;;;10.70;74.20;;;;;;5021842;28;84567;-56
2021/11/29 09:27:52;;;;;;;;;;;10.70;74.20;;;;;;5023045;28;82099;-57
2021/11/29 09:30:18;;;;;;;;;;;10.70;74.00;;;;;;5021417;28;83874;-56
2021/11/29 09:32:44;;;;;;;;;;;10.70;73.90;;;;;;5019487;28;83033;-55
2021/11/29 09:35:14;;;;;;;;;;;10.70;73.90;;;;;;5022330;28;82098;-54
2021/11/29 09:37:40;;;;;;;;;;;10.70;73.90;;;;;;5021719;28;84214;-57
2021/11/29 09:40:07;;;;;;;;;;;10.70;73.90;;;;;;5025154;28;82141;-57
2021/11/29 09:42:35;;;;;;;;;;;10.70;73.90;;;;;;5024384;28;83910;-58
2021/11/29 09:45:00;;;;;;;;;;;10.70;73.80;;;;;;5024407;28;85035;-56
2021/11/29 09:47:26;;;;;;;;;;;10.60;73.80;;;;;;5022690;28;81365;-56
2021/11/29 09:49:55;;;;;;;;;;;10.60;73.80;;;;;;5023419;28;82931;-56
2021/11/29 09:52:22;;;;;;;;;;;10.60;73.90;;;;;;5024667;28;83545;-55
2021/11/29 09:54:48;;;;;;;;;;;10.60;73.90;;;;;;5025904;28;82980;-57
2021/11/29 09:57:13;;;;;;;;;;;10.60;73.90;;;;;;5023936;28;82917;-56
2021/11/29 09:59:39;;;;;;;;;;;10.60;73.90;;;;;;5024983;28;82060;-55
2021/11/29 10:02:08;;;;;;;;;;;10.60;73.80;;;;;;5024337;28;82212;-56
2021/11/29 10:04:34;;;;;;;;;;;10.60;73.90;;;;;;5025146;28;85105;-57
2021/11/29 10:07:02;;;;;;;;;;;10.50;74.00;;;;;;5026314;28;82155;-56
2021/11/29 10:09:30;;;;;;;;;;;10.50;73.80;;;;;;5023464;28;82110;-57
2021/11/29 10:12:10;;;;;;;;;;;10.50;74.00;;;;;;5022442;28;83341;-56
2021/11/29 10:14:39;;;;;;;;;;;10.50;74.00;;;;;;5023597;28;82169;-56
2021/11/29 10:17:04;;;;;;;;;;;10.50;73.90;;;;;;5028408;28;83462;-57
2021/11/29 10:19:37;;;;;;;;;;;10.50;74.00;;;;;;5025411;28;83073;-57
2021/11/29 10:22:22;;;;;;;;;;;10.50;74.00;;;;;;5024773;28;85088;-57
2021/11/29 10:24:49;;;;;;;;;;;10.50;74.00;;;;;;5024440;28;83085;-56
2021/11/29 10:27:16;;;;;;;;;;;10.50;74.00;;;;;;5025438;28;82141;-57
2021/11/29 10:29:50;;;;;;;;;;;10.40;74.10;;;;;;5025297;28;82738;-57
2021/11/29 10:32:28;;;;;;;;;;;10.40;74.10;;;;;;5022800;28;83906;-57
2021/11/29 10:34:55;;;;;;;;;;;10.50;74.00;;;;;;5025432;28;82158;-58
2021/11/29 10:37:25;;;;;;;;;;;10.50;73.90;;;;;;5023971;28;82596;-58
2021/11/29 10:39:52;;;;;;;;;;;10.40;73.80;;;;;;5025296;28;82675;-56
2021/11/29 10:42:17;;;;;;;;;;;10.40;73.80;;;;;;5021079;28;83628;-58
2021/11/29 10:44:44;;;;;;;;;;;10.40;73.70;;;;;;5020908;28;83559;-58
2021/11/29 10:47:12;;;;;;;;;;;10.40;73.80;;;;;;5025240;28;83766;-57
2021/11/29 10:49:39;;;;;;;;;;;10.40;73.80;;;;;;5024829;28;82528;-57
2021/11/29 10:52:05;;;;;;;;;;;10.40;73.90;;;;;;5022416;28;84600;-56
2021/11/29 10:54:32;;;;;;;;;;;10.40;73.80;;;;;;5021296;28;82113;-57
2021/11/29 10:56:59;;;;;;;;;;;10.40;73.80;;;;;;5023249;28;83011;-56
2021/11/29 10:59:26;;;;;;;;;;;10.30;73.90;;;;;;5024644;28;84497;-58
2021/11/29 11:01:54;;;;;;;;;;;10.30;74.00;;;;;;5027947;28;81388;-56
2021/11/29 11:04:30;;;;;;;;;;;10.40;73.90;;;;;;5022008;28;84883;-57
2021/11/29 11:06:57;;;;;;;;;;;10.40;73.80;;;;;;5020618;28;82904;-57
2021/11/29 11:09:23;;;;;;;;;;;10.40;73.80;;;;;;5024612;28;84548;-58
2021/11/29 11:11:50;;;;;;;;;;;10.40;73.80;;;;;;5024634;28;84510;-57
2021/11/29 11:14:32;;;;;;;;;;;10.30;73.70;;;;;;5023671;28;82099;-58
2021/11/29 11:17:02;;;;;;;;;;;10.40;73.70;;;;;;5022549;28;82170;-58
2021/11/29 11:19:40;;;;;;;;;;;10.30;73.60;;;;;;5024485;28;83174;-58
2021/11/29 11:22:08;;;;;;;;;;;10.30;73.70;;;;;;5023324;28;82248;-58
2021/11/29 11:24:35;;;;;;;;;;;10.30;73.50;;;;;;5023108;28;84195;-57
2021/11/29 11:27:02;;;;;;;;;;;10.30;73.50;;;;;;5020994;28;81414;-58
2021/11/29 11:29:44;;;;;;;;;;;10.30;73.60;;;;;;5021674;28;83455;-58
2021/11/29 11:32:30;;;;;;;;;;;10.30;73.60;;;;;;5024849;28;83733;-57
2021/11/29 11:35:06;;;;;;;;;;;10.30;73.60;;;;;;5023711;28;84790;-59
2021/11/29 11:37:36;;;;;;;;;;;10.30;73.60;;;;;;5023542;28;84744;-57
2021/11/29 11:40:04;;;;;;;;;;;10.30;73.70;;;;;;5023065;28;84401;-58
2021/11/29 11:42:29;;;;;;;;;;;10.30;73.80;;;;;;5021877;28;82089;-58
2021/11/29 11:44:56;;;;;;;;;;;10.20;73.80;;;;;;5021848;28;82926;-58
2021/11/29 11:47:21;;;;;;;;;;;10.20;74.00;;;;;;5023937;28;84529;-56
2021/11/29 11:49:48;;;;;;;;;;;10.20;74.00;;;;;;5021437;28;83897;-58
2021/11/29 11:52:16;;;;;;;;;;;10.20;73.90;;;;;;5021205;28;81967;-58
2021/11/29 11:54:42;;;;;;;;;;;10.20;73.90;;;;;;5020392;28;82919;-57
2021/11/29 11:57:13;;;;;;;;;;;10.20;74.00;;;;;;5020489;28;83721;-57
2021/11/29 11:59:50;;;;;;;;;;;10.20;74.00;;;;;;5020015;28;84205;-58
2021/11/29 12:02:18;;;;;;;;;;;10.20;74.00;;;;;;5020701;28;82086;-58
2021/11/29 12:05:04;;;;;;;;;;;10.10;74.00;;;;;;5023944;28;83640;-56
2021/11/29 12:07:33;;;;;;;;;;;10.10;74.10;;;;;;5026342;28;82658;-58
2021/11/29 12:10:18;;;;;;;;;;;10.10;74.00;;;;;;5024327;28;83034;-56
2021/11/29 12:12:59;;;;;;;;;;;10.10;74.00;;;;;;5023571;28;82796;-55
2021/11/29 12:15:39;;;;;;;;;;;10.10;74.10;;;;;;5023976;28;82163;-56
2021/11/29 12:18:04;;;;;;;;;;;10.10;73.90;;;;;;5024569;28;83729;-56
2021/11/29 12:20:30;;;;;;;;;;;10.10;73.80;;;;;;5023659;28;83189;-56
2021/11/29 12:22:56;;;;;;;;;;;10.10;73.80;;;;;;5023794;28;82133;-57
2021/11/29 12:25:24;;;;;;;;;;;10.10;73.80;;;;;;5023560;28;84358;-56
2021/11/29 12:27:54;;;;;;;;;;;10.10;73.80;;;;;;5021273;28;84767;-55
2021/11/29 12:30:33;;;;;;;;;;;10.10;73.90;;;;;;5025283;28;82086;-56
2021/11/29 12:33:02;;;;;;;;;;;10.10;73.80;;;;;;5019269;28;84092;-56
2021/11/29 12:35:38;;;;;;;;;;;10.10;73.80;;;;;;5023235;28;82145;-57
2021/11/29 12:38:08;;;;;;;;;;;10.10;73.80;;;;;;5024130;28;82106;-55
2021/11/29 12:40:44;;;;;;;;;;;10.10;73.80;;;;;;5019921;28;84424;-56
2021/11/29 12:43:10;;;;;;;;;;;10.10;73.70;;;;;;5023485;28;83018;-57
2021/11/29 12:45:36;;;;;;;;;;;10.10;73.80;;;;;;5023696;28;83291;-56
2021/11/29 12:48:09;;;;;;;;;;;10.10;73.70;;;;;;5020887;28;84786;-56
2021/11/29 12:50:55;;;;;;;;;;;10.10;73.70;;;;;;5022408;28;83036;-58
2021/11/29 12:53:20;;;;;;;;;;;10.10;73.60;;;;;;5026590;28;82808;-56
2021/11/29 12:55:48;;;;;;;;;;;10.10;73.40;;;;;;5023549;28;82123;-57
2021/11/29 12:58:27;;;;;;;;;;;10.00;73.50;;;;;;5021233;28;82997;-58
2021/11/29 13:01:13;;;;;;;;;;;10.10;73.50;;;;;;5022739;28;85027;-57
2021/11/29 13:03:57;;;;;;;;;;;10.10;73.50;;;;;;5021942;28;82992;-57
2021/11/29 13:06:28;;;;;;;;;;;10.00;73.60;;;;;;5021660;28;82261;-58
2021/11/29 13:08:58;;;;;;;;;;;10.00;73.60;;;;;;5021637;28;82403;-58
2021/11/29 13:11:25;;;;;;;;;;;10.00;73.30;;;;;;5022848;28;82142;-58
2021/11/29 13:13:54;;;;;;;;;;;10.00;73.30;;;;;;5025401;28;83057;-58
2021/11/29 13:16:21;;;;;;;;;;;10.00;73.30;;;;;;5024790;28;84603;-57
2021/11/29 13:18:56;;;;;;;;;;;10.00;73.30;;;;;;5027189;28;84557;-58
2021/11/29 13:21:27;;;;;;;;;;;10.00;73.40;;;;;;5022644;28;82705;-58
2021/11/29 13:23:52;;;;;;;;;;;10.00;73.60;;;;;;5023648;28;82153;-58
2021/11/29 13:26:19;;;;;;;;;;;10.00;73.50;;;;;;5024384;28;82939;-57
2021/11/29 13:28:46;;;;;;;;;;;10.00;73.50;;;;;;5022801;28;83366;-57
2021/11/29 13:31:14;;;;;;;;;;;10.00;73.40;;;;;;5022112;28;83693;-56
2021/11/29 13:33:39;;;;;;;;;;;10.00;73.50;;;;;;5026470;28;84446;-58
2021/11/29 13:36:06;;;;;;;;;;;10.00;73.30;;;;;;5027035;28;82977;-57
2021/11/29 13:38:32;;;;;;;;;;;10.00;73.40;;;;;;5028303;28;82180;-57
2021/11/29 13:40:57;;;;;;;;;;;10.00;73.30;;;;;;5025364;28;84174;-59
2021/11/29 13:43:24;;;;;;;;;;;10.00;73.40;;;;;;5026423;28;82141;-58
2021/11/29 13:45:50;;;;;;;;;;;9.90;73.40;;;;;;5025605;28;82222;-58
2021/11/29 13:48:16;;;;;;;;;;;9.90;73.60;;;;;;5026286;28;83294;-58
2021/11/29 13:50:53;;;;;;;;;;;9.90;73.60;;;;;;5025813;28;82114;-58
2021/11/29 13:53:28;;;;;;;;;;;9.90;73.60;;;;;;5022325;28;83925;-58
2021/11/29 13:55:57;;;;;;;;;;;9.80;73.70;;;;;;5022742;28;84438;-58
2021/11/29 13:58:26;;;;;;;;;;;9.90;73.70;;;;;;5025088;28;81449;-58
2021/11/29 14:00:52;;;;;;;;;;;9.90;73.60;;;;;;5024295;28;84086;-58
2021/11/29 14:03:21;;;;;;;;;;;9.90;73.50;;;;;;5026239;28;82070;-57
2021/11/29 14:05:48;;;;;;;;;;;9.80;73.70;;;;;;5021117;28;83478;-57
2021/11/29 14:08:18;;;;;;;;;;;9.80;73.80;;;;;;5026369;28;83372;-56
2021/11/29 14:10:56;;;;;;;;;;;9.80;73.80;;;;;;5021610;28;82319;-56
2021/11/29 14:13:28;;;;;;;;;;;9.80;73.80;;;;;;5026226;28;82856;-57
2021/11/29 14:16:01;;;;;;;;;;;9.80;73.70;;;;;;5022865;28;84494;-57
2021/11/29 14:18:32;;;;;;;;;;;9.80;73.70;;;;;;5026560;28;82443;-59